Terminal Aerodrome Forecast
Issued by NWS North Platte, NE

Home | Current Version | Previous Version | Graphics & Text | Print | Product List | Glossary On
Versions: 1 2 3 4 5 6 7 8 9 10 11 12 13
000
FTUS43 KLBF 292300
TAFVTN
TAF
KVTN 292324Z 3000/3024 VRB06KT P6SM SKC
     FM301300 22007KT P6SM SCT200
     FM301800 16008KT P6SM BKN150 PROB30 3022/3024 5SM -TSRA
      BKN060CB=

USA.gov is the U.S. government's official web portal to all federal, state and local government web resources and services.